Time;durP1;ratioP1;P1;durP2;ratioP2;P2;SDS_P1;SDS_P2;PMS_P1;PMS_P2;Temp;Humidity;BMP_temperature;BMP_pressure;BME280_temperature;BME280_humidity;BME280_pressure;Samples;Min_cycle;Max_cycle;Signal;HPM_P1;HPM_P2
2023/05/13 00:02:22;;;;;;;4.80;4.40;;;;;;;7.74;95.66;97826.25;6226754;28;20608;-91
2023/05/13 00:05:25;;;;;;;9.67;5.43;;;;;;;7.11;95.55;97728.38;6243106;28;20595;-91
2023/05/13 00:08:28;;;;;;;4.37;3.97;;;;;;;7.24;95.40;97752.91;6214265;28;20235;-91
2023/05/13 00:11:31;;;;;;;4.27;3.87;;;;;;;8.06;95.68;97905.69;6227928;28;20638;-91
2023/05/13 00:14:35;;;;;;;4.53;4.13;;;;;;;7.45;95.59;97783.50;6243623;28;20250;-91
2023/05/13 00:17:38;;;;;;;4.00;3.57;;;;;;;7.35;95.69;97791.13;6218585;28;20233;-91
2023/05/13 00:20:41;;;;;;;6.83;5.63;;;;;;;7.63;95.64;97795.94;6234331;28;20239;-92
2023/05/13 00:23:46;;;;;;;5.73;5.20;;;;;;;7.40;95.76;97761.31;6234704;28;20732;-92
2023/05/13 00:26:48;;;;;;;5.57;5.07;;;;;;;7.48;95.50;97783.03;6235670;28;20285;-91
2023/05/13 00:29:50;;;;;;;5.37;4.97;;;;;;;8.75;95.81;97978.88;6234979;28;20234;-91
2023/05/13 00:32:53;;;;;;;8.63;7.63;;;;;;;6.49;95.42;97654.16;6223249;28;20314;-92
2023/05/13 00:35:56;;;;;;;7.47;6.73;;;;;;;7.90;95.85;97883.19;6241177;28;20282;-90
2023/05/13 00:38:59;;;;;;;7.53;6.73;;;;;;;6.21;95.65;97625.50;6243545;28;20267;-92
2023/05/13 00:42:03;;;;;;;8.83;6.80;;;;;;;7.20;95.49;97748.28;6217575;28;20228;-91
2023/05/13 00:45:09;;;;;;;6.70;6.00;;;;;;;7.47;95.59;97821.19;6224027;28;20604;-92
2023/05/13 00:48:12;;;;;;;6.20;5.60;;;;;;;7.78;95.31;97835.34;6220024;28;20242;-91
2023/05/13 00:51:15;;;;;;;7.03;6.10;;;;;;;6.22;95.45;97579.50;6240740;28;20204;-92
2023/05/13 00:54:18;;;;;;;6.20;5.60;;;;;;;8.75;95.91;98008.09;6231620;28;20251;-92
2023/05/13 00:57:23;;;;;;;6.87;6.10;;;;;;;7.95;95.99;97854.16;6231592;28;20733;-91
2023/05/13 01:00:30;;;;;;;6.73;6.07;;;;;;;7.23;95.62;97735.38;6213520;28;20276;-92
2023/05/13 01:03:58;;;;;;;7.30;6.60;;;;;;;6.41;95.35;97626.16;6231648;28;20228;-91
2023/05/13 01:07:38;;;;;;;6.10;5.50;;;;;;;8.02;95.88;97857.53;6214606;28;20712;-91
2023/05/13 01:10:48;;;;;;;8.97;6.30;;;;;;;8.77;95.74;97974.97;6214907;28;20274;-92
2023/05/13 01:14:01;;;;;;;10.00;9.00;;;;;;;6.42;95.36;97619.03;6199703;28;20388;-92
2023/05/13 01:17:13;;;;;;;9.73;8.83;;;;;;;7.90;95.60;97868.09;6222721;28;20875;-92
2023/05/13 01:20:20;;;;;;;10.87;9.77;;;;;;;8.21;95.60;97941.44;6200436;28;20334;-93
2023/05/13 01:23:24;;;;;;;12.17;10.90;;;;;;;8.68;95.58;97983.47;6238831;28;20502;-91
2023/05/13 01:26:27;;;;;;;12.37;11.07;;;;;;;6.97;95.52;97728.50;6199406;28;20374;-92
2023/05/13 01:29:30;;;;;;;10.77;9.67;;;;;;;8.71;95.53;98018.34;6216170;28;20243;-92
2023/05/13 01:32:35;;;;;;;10.77;9.67;;;;;;;8.00;95.72;97904.72;6238415;28;20231;-93
2023/05/13 01:35:42;;;;;;;15.03;9.43;;;;;;;6.14;95.25;97624.72;6247407;28;20265;-93
2023/05/13 01:38:47;;;;;;;9.70;8.70;;;;;;;7.03;95.49;97776.31;6228492;28;20365;-91
2023/05/13 01:41:50;;;;;;;10.40;9.40;;;;;;;6.06;95.43;97624.97;6247833;28;20756;-91
2023/05/13 01:44:53;;;;;;;9.93;8.93;;;;;;;6.79;95.89;97711.75;6221128;28;20231;-93
2023/05/13 01:47:56;;;;;;;10.30;9.30;;;;;;;7.30;95.71;97769.78;6238426;28;20242;-92
2023/05/13 01:51:03;;;;;;;10.23;9.13;;;;;;;8.09;96.00;97897.28;6234495;28;20617;-92
2023/05/13 01:54:06;;;;;;;8.63;7.77;;;;;;;7.12;95.89;97769.72;6217993;28;20215;-92
2023/05/13 01:57:14;;;;;;;9.23;8.33;;;;;;;7.12;95.78;97812.91;6223594;28;20249;-93
2023/05/13 02:00:17;;;;;;;10.80;9.70;;;;;;;6.21;95.66;97617.56;6238439;28;20210;-92
2023/05/13 02:03:23;;;;;;;9.60;8.60;;;;;;;7.84;96.06;97868.97;6237064;28;20219;-93
2023/05/13 02:06:26;;;;;;;10.37;9.27;;;;;;;6.23;95.55;97671.06;6224191;28;20641;-93
2023/05/13 02:09:30;;;;;;;10.37;9.37;;;;;;;5.79;95.38;97561.69;6219508;28;20311;-91
2023/05/13 02:12:33;;;;;;;8.93;8.03;;;;;;;7.16;95.96;97778.88;6221647;28;20227;-93
2023/05/13 02:15:35;;;;;;;11.63;10.43;;;;;;;7.04;95.68;97754.09;6237552;28;20308;-93
2023/05/13 02:18:38;;;;;;;12.00;10.40;;;;;;;8.56;95.99;98025.03;6237937;28;20240;-92
2023/05/13 02:21:42;;;;;;;12.47;11.17;;;;;;;6.73;95.33;97726.66;6222158;28;20696;-93
2023/05/13 02:24:45;;;;;;;13.27;10.70;;;;;;;6.54;95.57;97669.38;6223821;28;20235;-92
2023/05/13 02:27:51;;;;;;;13.70;12.00;;;;;;;7.62;95.82;97857.13;6230945;28;20233;-92
2023/05/13 02:30:54;;;;;;;12.70;11.43;;;;;;;8.42;95.95;97981.88;6237653;28;20701;-92
2023/05/13 02:34:01;;;;;;;13.07;11.67;;;;;;;7.49;95.96;97848.28;6221070;28;20240;-93
2023/05/13 02:37:04;;;;;;;12.83;11.57;;;;;;;8.48;96.23;98034.94;6245439;28;20236;-91
2023/05/13 02:40:14;;;;;;;13.80;11.40;;;;;;;6.79;95.90;97767.34;6225160;28;20578;-93
2023/05/13 02:43:22;;;;;;;13.03;11.67;;;;;;;6.95;96.01;97767.63;6233388;28;20248;-91
2023/05/13 02:46:31;;;;;;;12.53;11.33;;;;;;;6.17;95.99;97651.56;6221716;28;20238;-92
2023/05/13 02:49:38;;;;;;;15.00;12.13;;;;;;;8.48;96.54;98004.91;6220038;28;20333;-92
2023/05/13 02:52:41;;;;;;;16.03;11.97;;;;;;;6.81;95.99;97760.00;6233645;28;20231;-92
2023/05/13 02:55:43;;;;;;;17.20;13.60;;;;;;;7.63;96.17;97895.88;6236807;28;20712;-92
2023/05/13 02:58:46;;;;;;;11.77;10.57;;;;;;;8.43;96.72;97999.47;6236208;28;20816;-91
2023/05/13 03:01:49;;;;;;;12.93;11.63;;;;;;;6.94;96.16;97775.78;6239142;28;20732;-92
2023/05/13 03:04:53;;;;;;;14.97;13.47;;;;;;;7.95;95.65;97947.81;6220271;28;20284;-91
2023/05/13 03:07:59;;;;;;;13.73;12.37;;;;;;;6.57;95.61;97724.56;6233744;28;20754;-91
2023/05/13 03:11:02;;;;;;;14.60;13.10;;;;;;;6.93;96.01;97790.84;6237125;28;20868;-91
2023/05/13 03:14:06;;;;;;;14.60;12.97;;;;;;;7.72;95.94;97882.13;6235921;28;20224;-92
2023/05/13 03:17:09;;;;;;;14.83;12.70;;;;;;;8.41;95.78;98044.78;6255026;28;20294;-91
2023/05/13 03:20:15;;;;;;;18.00;14.37;;;;;;;7.04;96.15;97807.88;6216990;28;20232;-92
2023/05/13 03:23:19;;;;;;;14.67;12.00;;;;;;;7.34;95.80;97858.41;6228596;28;20607;-92
2023/05/13 03:26:23;;;;;;;15.53;13.63;;;;;;;6.84;95.83;97768.31;6236570;28;20608;-91
2023/05/13 03:29:27;;;;;;;13.63;10.43;;;;;;;7.52;96.50;97881.50;6218287;28;20235;-91
2023/05/13 03:32:31;;;;;;;14.40;12.90;;;;;;;6.23;95.86;97676.34;6235573;28;20239;-92
2023/05/13 03:35:34;;;;;;;17.97;13.83;;;;;;;6.90;95.88;97796.59;6227621;28;20230;-93
2023/05/13 03:38:36;;;;;;;15.77;14.07;;;;;;;6.36;96.03;97738.94;6235611;28;20713;-95
2023/05/13 03:41:39;;;;;;;13.43;12.03;;;;;;;6.49;96.06;97733.56;6235614;28;20377;-91
2023/05/13 03:44:42;;;;;;;14.13;12.27;;;;;;;6.57;96.20;97751.81;6218273;28;20299;-93
2023/05/13 03:47:45;;;;;;;12.87;11.57;;;;;;;8.44;95.90;98033.75;6238650;28;20239;-91
2023/05/13 03:50:52;;;;;;;11.80;10.57;;;;;;;7.60;96.20;97910.38;6234161;28;20260;-91
2023/05/13 03:53:55;;;;;;;14.07;12.60;;;;;;;6.76;96.17;97779.19;6235078;28;20228;-91
2023/05/13 03:56:58;;;;;;;12.27;11.07;;;;;;;6.91;96.20;97808.00;6219124;28;20560;-91
2023/05/13 04:00:02;;;;;;;12.07;10.83;;;;;;;7.11;96.23;97864.28;6236001;28;20262;-91
2023/05/13 04:03:16;;;;;;;13.77;11.83;;;;;;;8.47;96.47;98089.06;6227761;28;20227;-92
2023/05/13 04:06:18;;;;;;;15.93;14.23;;;;;;;6.61;96.12;97757.50;6227661;28;20239;-92
2023/05/13 04:09:21;;;;;;;14.67;12.77;;;;;;;7.90;96.47;98015.81;6242629;28;20238;-91
2023/05/13 04:12:32;;;;;;;14.50;12.40;;;;;;;6.02;96.40;97681.97;6219021;28;20230;-91
2023/05/13 04:15:35;;;;;;;12.30;10.30;;;;;;;6.19;96.17;97717.47;6229218;28;20581;-90
2023/05/13 04:18:42;;;;;;;17.37;12.87;;;;;;;8.49;96.69;98092.31;6234582;28;20231;-91
2023/05/13 04:21:44;;;;;;;14.23;12.73;;;;;;;5.74;96.29;97617.03;6242507;28;20231;-91
2023/05/13 04:24:50;;;;;;;17.47;14.53;;;;;;;8.40;96.63;98082.19;6228504;28;20247;-92
2023/05/13 04:28:16;;;;;;;14.67;12.67;;;;;;;8.52;96.42;98115.78;6207670;28;20230;-91
2023/05/13 04:31:36;;;;;;;16.87;14.43;;;;;;;5.71;95.73;97643.84;6239378;28;20668;-94
2023/05/13 04:34:38;;;;;;;16.17;13.80;;;;;;;7.69;96.15;97953.38;6235953;28;20254;-93
2023/05/13 04:37:41;;;;;;;16.37;14.40;;;;;;;8.23;96.13;98003.09;6241272;28;20230;-92
2023/05/13 04:40:47;;;;;;;18.93;14.20;;;;;;;6.54;95.79;97746.13;6245351;28;20821;-93
2023/05/13 04:43:56;;;;;;;13.50;12.10;;;;;;;6.97;96.17;97866.22;6222412;28;20267;-91
2023/05/13 04:46:59;;;;;;;12.80;11.23;;;;;;;6.23;95.80;97725.78;6224053;28;20569;-91
2023/05/13 04:50:04;;;;;;;14.03;11.97;;;;;;;6.23;95.87;97694.84;6231918;28;20226;-92
2023/05/13 04:53:09;;;;;;;11.30;9.83;;;;;;;6.71;96.14;97771.88;6223103;28;20236;-90
2023/05/13 04:56:13;;;;;;;11.10;9.23;;;;;;;6.08;96.13;97703.09;6241807;28;20711;-93
2023/05/13 04:59:20;;;;;;;11.63;10.43;;;;;;;8.52;96.54;98075.13;6225011;28;20253;-91
2023/05/13 05:02:25;;;;;;;10.00;8.43;;;;;;;6.08;96.14;97689.06;6226921;28;20312;-91
2023/05/13 05:05:29;;;;;;;8.83;7.93;;;;;;;8.38;96.22;98041.78;6191152;28;20228;-91
2023/05/13 05:08:35;;;;;;;10.27;9.00;;;;;;;6.60;96.26;97766.44;6239798;28;20219;-91
2023/05/13 05:11:39;;;;;;;10.70;9.27;;;;;;;6.16;96.13;97707.31;6217416;28;20752;-91
2023/05/13 05:14:43;;;;;;;12.30;11.10;;;;;;;7.33;96.25;97871.88;6232675;28;20228;-91
2023/05/13 05:17:46;;;;;;;12.83;10.13;;;;;;;6.94;96.11;97811.00;6236397;28;20281;-91
2023/05/13 05:20:50;;;;;;;11.87;10.63;;;;;;;7.16;95.98;97861.81;6231110;28;20231;-91
2023/05/13 05:23:56;;;;;;;14.07;11.40;;;;;;;6.70;95.53;97778.22;6217382;28;20235;-92
2023/05/13 05:27:01;;;;;;;12.97;11.67;;;;;;;7.30;95.64;97912.06;6251908;28;20705;-90
2023/05/13 05:30:05;;;;;;;14.07;12.40;;;;;;;5.82;95.39;97635.28;6220949;28;20402;-91
2023/05/13 05:33:09;;;;;;;13.53;12.13;;;;;;;8.67;96.18;98082.72;6244865;28;20753;-90
2023/05/13 05:36:14;;;;;;;11.97;10.50;;;;;;;7.19;96.15;97863.19;6238327;28;20262;-91
2023/05/13 05:39:16;;;;;;;12.60;11.30;;;;;;;7.51;95.87;97946.16;6226097;28;20255;-91
2023/05/13 05:42:19;;;;;;;13.43;11.90;;;;;;;6.93;95.90;97808.59;6220650;28;20250;-91
2023/05/13 05:45:22;;;;;;;14.33;11.93;;;;;;;6.34;95.85;97707.38;6221197;28;20300;-90
2023/05/13 05:48:24;;;;;;;13.57;12.17;;;;;;;6.30;95.94;97719.41;6236799;28;20218;-90
2023/05/13 05:51:27;;;;;;;14.17;12.37;;;;;;;8.04;96.31;97966.94;6240254;28;20227;-90
2023/05/13 05:54:30;;;;;;;13.90;12.33;;;;;;;8.84;96.19;98128.97;6253209;28;20497;-90
2023/05/13 05:57:35;;;;;;;16.10;13.60;;;;;;;8.88;96.48;98089.50;6233572;28;20720;-91
2023/05/13 06:00:38;;;;;;;17.77;14.17;;;;;;;6.51;95.97;97722.78;6220195;28;20237;-92
2023/05/13 06:03:40;;;;;;;16.50;13.67;;;;;;;8.78;95.96;98132.50;6243219;28;20216;-91
2023/05/13 06:06:43;;;;;;;13.07;11.77;;;;;;;7.48;95.95;97881.09;6228612;28;20814;-91
2023/05/13 06:09:46;;;;;;;18.60;13.77;;;;;;;7.20;96.05;97851.59;6218875;28;20227;-91
2023/05/13 06:12:50;;;;;;;16.87;15.03;;;;;;;6.58;95.38;97758.72;6237566;28;20307;-91
2023/05/13 06:15:55;;;;;;;18.00;14.97;;;;;;;7.40;95.59;97875.28;6237116;28;20233;-91
2023/05/13 06:18:57;;;;;;;15.70;13.43;;;;;;;7.43;95.42;97898.69;6219007;28;20239;-91
2023/05/13 06:22:00;;;;;;;14.03;12.53;;;;;;;8.66;95.70;98089.91;6244581;28;20343;-90
2023/05/13 06:25:05;;;;;;;16.40;14.10;;;;;;;6.79;95.76;97770.78;6236125;28;20235;-91
2023/05/13 06:28:12;;;;;;;16.30;14.17;;;;;;;7.08;95.53;97840.88;6236900;28;20236;-92
2023/05/13 06:31:16;;;;;;;15.93;13.50;;;;;;;7.96;95.44;97991.88;6225253;28;20228;-92
2023/05/13 06:34:20;;;;;;;17.57;14.33;;;;;;;6.57;95.13;97743.06;6245464;28;20232;-91
2023/05/13 06:37:23;;;;;;;18.87;16.10;;;;;;;6.56;95.54;97733.53;6236349;28;20327;-91
2023/05/13 06:40:26;;;;;;;18.50;16.03;;;;;;;7.40;95.42;97877.94;6216707;28;20238;-91
2023/05/13 06:43:29;;;;;;;15.50;13.40;;;;;;;7.18;95.77;97833.25;6230165;28;20434;-92
2023/05/13 06:46:34;;;;;;;18.40;15.30;;;;;;;8.77;95.50;98083.06;6220910;28;20378;-92
2023/05/13 06:49:37;;;;;;;15.97;14.27;;;;;;;7.14;95.57;97828.59;6228768;28;20225;-92
2023/05/13 06:52:39;;;;;;;16.60;13.73;;;;;;;7.58;95.75;97901.81;6246820;28;20235;-92
2023/05/13 06:55:43;;;;;;;18.03;14.63;;;;;;;9.03;95.73;98113.84;6244897;28;20274;-94
2023/05/13 06:58:46;;;;;;;20.77;16.50;;;;;;;8.71;95.65;98078.63;6254368;28;20278;-90
2023/05/13 07:02:22;;;;;;;20.80;16.47;;;;;;;8.47;95.32;98035.97;6236677;28;20239;-96
2023/05/13 07:06:13;;;;;;;16.57;14.27;;;;;;;9.05;95.88;98117.91;6211426;22;20875;-46
2023/05/13 07:09:16;;;;;;;20.20;17.20;;;;;;;9.09;95.45;98122.78;6219559;28;20213;-46
2023/05/13 07:12:18;;;;;;;18.10;16.20;;;;;;;9.08;95.55;98118.50;6223036;28;20343;-45
2023/05/13 07:15:23;;;;;;;21.43;17.70;;;;;;;9.09;95.42;98128.09;6203466;28;20602;-45
2023/05/13 07:18:25;;;;;;;21.30;18.03;;;;;;;9.13;95.64;98127.44;6210332;28;20693;-43
2023/05/13 07:21:28;;;;;;;18.67;15.43;;;;;;;9.05;95.74;98114.44;6191223;28;20312;-44
2023/05/13 07:24:31;;;;;;;18.63;15.93;;;;;;;9.15;95.42;98133.34;6208557;28;20265;-44
2023/05/13 07:27:34;;;;;;;20.40;15.77;;;;;;;9.16;95.86;98140.31;6194457;28;20293;-45
2023/05/13 07:30:40;;;;;;;18.43;15.67;;;;;;;9.16;95.52;98132.31;6206114;28;20705;-44
2023/05/13 07:33:42;;;;;;;18.30;16.30;;;;;;;9.16;95.75;98140.31;6189069;28;20392;-43
2023/05/13 07:36:45;;;;;;;17.73;15.90;;;;;;;9.18;95.58;98142.72;6200181;28;20237;-43
2023/05/13 07:39:48;;;;;;;17.77;15.80;;;;;;;9.17;95.85;98139.25;6194872;28;20225;-44
2023/05/13 07:42:51;;;;;;;20.37;18.13;;;;;;;9.20;95.35;98149.44;6201116;28;20222;-46
2023/05/13 07:45:53;;;;;;;19.70;16.30;;;;;;;9.22;95.47;98150.03;6202461;28;20240;-44
2023/05/13 07:48:56;;;;;;;19.07;16.23;;;;;;;9.26;95.51;98151.22;6184091;28;20233;-45
2023/05/13 07:52:01;;;;;;;19.30;16.57;;;;;;;9.31;95.54;98147.91;6195899;28;20724;-45
2023/05/13 07:55:06;;;;;;;23.23;18.03;;;;;;;9.35;95.48;98158.88;6199121;28;20317;-44
2023/05/13 07:58:09;;;;;;;18.77;16.77;;;;;;;9.42;95.94;98152.47;6199140;28;20231;-45
2023/05/13 08:01:12;;;;;;;22.37;19.97;;;;;;;9.44;94.65;98154.91;6199289;28;20229;-45
2023/05/13 08:04:14;;;;;;;25.23;18.13;;;;;;;9.39;93.14;98149.44;6184161;28;20341;-47
2023/05/13 08:07:17;;;;;;;20.53;16.57;;;;;;;9.43;93.19;98151.44;6202088;28;20235;-44
2023/05/13 08:10:20;;;;;;;17.80;15.97;;;;;;;9.51;93.03;98153.81;6199102;28;20316;-45
2023/05/13 08:13:25;;;;;;;18.60;16.60;;;;;;;9.55;93.17;98156.81;6206371;28;20385;-44
2023/05/13 08:16:27;;;;;;;19.73;17.03;;;;;;;9.52;91.57;98150.09;6206839;28;20613;-46
2023/05/13 08:19:30;;;;;;;18.30;16.30;;;;;;;9.53;91.88;98157.03;6193937;28;20234;-44
2023/05/13 08:22:33;;;;;;;21.43;17.53;;;;;;;9.56;92.54;98153.13;6194144;28;20234;-44
2023/05/13 08:25:36;;;;;;;23.53;19.10;;;;;;;9.51;92.77;98156.47;6197512;28;20243;-43
2023/05/13 08:28:39;;;;;;;22.43;18.20;;;;;;;9.40;92.73;98146.53;6201106;28;20301;-42
2023/05/13 08:31:43;;;;;;;21.67;17.67;;;;;;;9.49;93.25;98160.38;6194149;28;20244;-47
2023/05/13 08:34:46;;;;;;;25.50;19.20;;;;;;;9.47;92.35;98157.94;6202046;28;20267;-45
2023/05/13 08:37:48;;;;;;;23.03;18.57;;;;;;;9.45;93.11;98156.53;6200887;28;20238;-46
2023/05/13 08:40:51;;;;;;;21.73;18.93;;;;;;;9.43;92.83;98164.72;6190825;28;20235;-45
2023/05/13 08:43:56;;;;;;;26.10;21.13;;;;;;;9.47;93.66;98163.25;6202946;28;20280;-46
2023/05/13 08:47:29;;;;;;;26.43;20.60;;;;;;;9.44;93.23;98162.88;6194987;28;20285;-49
2023/05/13 08:50:33;;;;;;;26.80;20.63;;;;;;;9.45;93.50;98164.50;6194034;28;20230;-44
2023/05/13 08:53:39;;;;;;;23.73;19.53;;;;;;;9.41;93.44;98169.47;6205082;28;20809;-43
2023/05/13 08:56:42;;;;;;;25.73;19.63;;;;;;;9.37;93.23;98162.97;6189100;28;20712;-45
2023/05/13 08:59:44;;;;;;;21.60;18.33;;;;;;;9.29;93.10;98157.94;6186641;28;20241;-46
2023/05/13 09:02:48;;;;;;;25.20;17.23;;;;;;;9.32;92.96;98170.78;6201274;28;20247;-45
2023/05/13 09:05:51;;;;;;;21.47;16.43;;;;;;;9.33;93.18;98161.78;6208513;28;20292;-48
2023/05/13 09:08:55;;;;;;;17.50;14.50;;;;;;;9.36;93.56;98166.66;6197632;28;20234;-49
2023/05/13 09:11:58;;;;;;;22.07;16.67;;;;;;;9.40;93.66;98170.47;6200650;28;20315;-50
2023/05/13 09:15:00;;;;;;;21.47;15.53;;;;;;;9.44;93.42;98171.66;6202617;28;20233;-48
2023/05/13 09:18:05;;;;;;;20.70;15.63;;;;;;;9.40;93.64;98173.13;6206955;28;20253;-47
2023/05/13 09:21:24;;;;;;;22.63;16.83;;;;;;;9.44;93.33;98157.56;6198568;28;20244;-46
2023/05/13 09:24:27;;;;;;;19.20;14.80;;;;;;;9.62;93.25;98164.72;6195938;28;20235;-45
2023/05/13 09:27:37;;;;;;;19.00;15.27;;;;;;;9.69;93.73;98168.09;6200960;28;20238;-47
2023/05/13 09:30:40;;;;;;;23.20;16.77;;;;;;;9.71;93.52;98174.03;6201915;28;20307;-48
2023/05/13 09:33:52;;;;;;;20.33;15.80;;;;;;;9.68;92.92;98175.28;6199212;28;20874;-41
2023/05/13 09:37:05;;;;;;;22.77;16.97;;;;;;;9.80;92.84;98173.50;6196828;28;20243;-44
2023/05/13 09:40:14;;;;;;;21.20;16.13;;;;;;;9.74;93.03;98169.06;6201568;28;20412;-47
2023/05/13 09:43:24;;;;;;;19.80;16.07;;;;;;;9.74;92.68;98173.56;6200653;28;20226;-45
2023/05/13 09:46:26;;;;;;;19.37;16.47;;;;;;;9.83;92.53;98174.88;6199654;28;20278;-44
2023/05/13 09:49:31;;;;;;;22.50;16.17;;;;;;;9.89;92.79;98173.97;6201111;28;20780;-44
2023/05/13 09:52:35;;;;;;;22.10;16.33;;;;;;;10.07;92.11;98175.78;6198821;28;20239;-46
2023/05/13 09:55:45;;;;;;;19.20;16.60;;;;;;;10.14;92.19;98175.69;6191837;28;20242;-46
2023/05/13 09:58:51;;;;;;;20.40;16.00;;;;;;;10.14;91.93;98171.19;6198871;28;20240;-46
2023/05/13 10:01:58;;;;;;;19.23;15.33;;;;;;;10.17;92.39;98172.59;6202020;28;20427;-44
2023/05/13 10:05:01;;;;;;;21.20;15.47;;;;;;;10.21;91.57;98176.44;6196389;28;20239;-48
2023/05/13 10:08:04;;;;;;;14.73;13.20;;;;;;;10.28;91.98;98169.16;6199126;28;20238;-46
2023/05/13 10:11:07;;;;;;;17.43;15.00;;;;;;;10.19;89.04;98168.66;6204029;28;20236;-46
2023/05/13 10:14:10;;;;;;;16.67;12.87;;;;;;;10.16;89.50;98176.28;6199923;28;20333;-47
2023/05/13 10:17:15;;;;;;;14.43;12.93;;;;;;;10.12;90.18;98177.78;6202877;28;20236;-46
2023/05/13 10:20:18;;;;;;;15.83;13.90;;;;;;;10.07;90.51;98181.94;6181633;28;20221;-44
2023/05/13 10:23:22;;;;;;;16.53;13.37;;;;;;;10.03;90.76;98178.09;6205828;28;20319;-45
2023/05/13 10:26:26;;;;;;;16.30;13.03;;;;;;;10.02;91.24;98178.31;6200553;28;20247;-44
2023/05/13 10:29:29;;;;;;;17.43;14.40;;;;;;;9.96;91.27;98182.69;6194740;28;20218;-44
2023/05/13 10:32:32;;;;;;;17.27;13.97;;;;;;;9.94;91.11;98190.09;6205035;28;20746;-44
2023/05/13 10:35:42;;;;;;;16.47;14.13;;;;;;;9.93;90.67;98188.47;6200300;28;20227;-45
2023/05/13 10:39:12;;;;;;;16.40;13.17;;;;;;;9.96;91.03;98195.19;6200171;28;20830;-46
2023/05/13 10:42:37;;;;;;;16.87;13.50;;;;;;;9.96;91.12;98196.00;6200131;28;20227;-44
2023/05/13 10:45:44;;;;;;;13.40;12.00;;;;;;;9.92;90.78;98194.81;6196535;28;20244;-44
2023/05/13 10:48:48;;;;;;;15.07;13.43;;;;;;;9.91;90.68;98193.22;6198935;28;20232;-45
2023/05/13 10:51:51;;;;;;;19.13;14.93;;;;;;;9.88;91.30;98196.31;6205130;28;20271;-47
2023/05/13 10:55:01;;;;;;;15.70;13.83;;;;;;;9.85;91.16;98191.41;6202111;28;20242;-45
2023/05/13 10:58:12;;;;;;;29.80;24.83;;;;;;;9.80;90.98;98207.25;6182812;28;20235;-45
2023/05/13 11:01:44;;;;;;;20.83;18.10;;;;;;;9.78;91.25;98196.03;6197988;28;20234;-46
2023/05/13 11:05:00;;;;;;;18.53;15.77;;;;;;;9.78;91.21;98191.50;6206961;28;20319;-44
2023/05/13 11:08:03;;;;;;;15.53;13.40;;;;;;;9.69;91.50;98176.09;6196141;28;21598;-46
2023/05/13 11:11:21;;;;;;;15.73;13.30;;;;;;;9.82;91.54;98194.56;6201823;28;20405;-44
2023/05/13 11:14:26;;;;;;;17.03;14.10;;;;;;;10.00;90.03;98191.03;6189587;28;20219;-45
2023/05/13 11:17:30;;;;;;;18.57;13.67;;;;;;;9.94;87.51;98174.13;6203171;28;20249;-46
2023/05/13 11:20:36;;;;;;;14.67;12.40;;;;;;;10.00;88.04;98193.69;6200781;28;20848;-47
2023/05/13 11:24:05;;;;;;;14.73;11.90;;;;;;;10.09;88.47;98201.13;6194811;28;20250;-45
2023/05/13 11:27:19;;;;;;;19.80;12.50;;;;;;;10.18;86.99;98193.66;6204447;28;20598;-45
2023/05/13 11:30:25;;;;;;;16.27;12.67;;;;;;;10.14;87.74;98203.13;6194792;28;20224;-45
2023/05/13 11:34:08;;;;;;;15.40;12.70;;;;;;;10.12;88.76;98197.22;6194660;28;20235;-46
2023/05/13 11:37:10;;;;;;;18.50;14.03;;;;;;;10.09;89.63;98198.47;6201018;28;20234;-44
2023/05/13 11:40:24;;;;;;;13.47;12.07;;;;;;;10.04;89.30;98205.50;6197914;28;20228;-44
2023/05/13 11:43:27;;;;;;;15.97;11.97;;;;;;;10.11;90.13;98208.09;6198347;28;20242;-48
2023/05/13 11:46:29;;;;;;;15.00;12.80;;;;;;;10.19;90.29;98202.44;6202165;28;20238;-45
2023/05/13 11:49:32;;;;;;;13.03;11.37;;;;;;;10.28;90.22;98201.94;6202173;28;20243;-46
2023/05/13 11:52:34;;;;;;;11.60;10.40;;;;;;;10.27;90.34;98194.19;6204600;28;20247;-44
2023/05/13 11:55:37;;;;;;;13.87;12.43;;;;;;;10.13;90.44;98164.22;6203767;28;20447;-48
2023/05/13 11:58:42;;;;;;;13.50;10.83;;;;;;;10.35;90.01;98209.03;6199879;28;20368;-46
2023/05/13 12:01:44;;;;;;;14.97;11.17;;;;;;;10.27;89.82;98210.97;6183551;28;20224;-44
2023/05/13 12:04:47;;;;;;;14.03;11.63;;;;;;;10.22;90.20;98205.47;6197729;28;20226;-45
2023/05/13 12:07:56;;;;;;;13.63;11.60;;;;;;;10.26;90.43;98206.69;6197954;28;20242;-50
2023/05/13 12:10:59;;;;;;;12.37;10.57;;;;;;;10.20;90.38;98186.25;6197581;28;20233;-46
2023/05/13 12:14:02;;;;;;;12.47;11.17;;;;;;;10.37;90.45;98193.63;6195108;28;20255;-44
2023/05/13 12:17:04;;;;;;;14.07;11.73;;;;;;;10.40;90.53;98204.66;6196046;28;20225;-45
2023/05/13 12:20:11;;;;;;;11.90;10.70;;;;;;;10.46;90.05;98203.72;6199219;28;20224;-45
2023/05/13 12:23:14;;;;;;;14.27;11.93;;;;;;;10.49;90.09;98205.94;6195764;28;20228;-47
2023/05/13 12:26:18;;;;;;;11.10;9.90;;;;;;;10.54;90.20;98207.91;6192992;28;20334;-44
2023/05/13 12:29:21;;;;;;;12.97;10.53;;;;;;;10.55;89.94;98212.22;6204341;28;20330;-45
2023/05/13 12:32:24;;;;;;;10.53;9.53;;;;;;;10.57;90.51;98221.59;6203971;28;20232;-45
2023/05/13 12:35:28;;;;;;;9.80;8.87;;;;;;;10.56;90.01;98208.50;6203774;28;20247;-48
2023/05/13 12:38:32;;;;;;;11.90;10.70;;;;;;;10.49;90.07;98215.75;6197301;28;20232;-45
2023/05/13 12:41:37;;;;;;;14.23;9.93;;;;;;;10.42;90.23;98210.56;6200585;28;20238;-43
2023/05/13 12:44:44;;;;;;;11.87;10.67;;;;;;;10.33;90.74;98209.25;6201098;28;20615;-47
2023/05/13 12:47:51;;;;;;;13.97;11.23;;;;;;;10.40;90.46;98215.31;6195569;28;20232;-43
2023/05/13 12:50:55;;;;;;;13.37;11.33;;;;;;;10.42;90.51;98221.19;6202785;28;20235;-45
2023/05/13 12:53:59;;;;;;;12.17;10.87;;;;;;;10.48;90.39;98216.81;6204096;28;20319;-44
2023/05/13 12:57:11;;;;;;;11.90;10.70;;;;;;;10.58;90.83;98211.75;6206872;28;20239;-43
2023/05/13 13:00:16;;;;;;;11.63;9.33;;;;;;;10.59;90.30;98222.19;6206531;28;20601;-45
2023/05/13 13:03:20;;;;;;;11.23;10.13;;;;;;;10.62;90.12;98215.56;6200144;28;20216;-46
2023/05/13 13:06:26;;;;;;;12.80;10.70;;;;;;;10.56;90.36;98209.31;6188676;28;20231;-47
2023/05/13 13:09:28;;;;;;;13.17;10.73;;;;;;;10.54;89.89;98200.75;6191642;28;20405;-45
2023/05/13 13:12:31;;;;;;;12.17;10.37;;;;;;;10.53;90.45;98198.28;6199885;28;20233;-44
2023/05/13 13:15:34;;;;;;;13.90;10.47;;;;;;;10.54;90.07;98203.41;6206374;28;20294;-48
2023/05/13 13:18:36;;;;;;;13.60;9.83;;;;;;;10.56;90.67;98201.31;6196916;28;20617;-45
2023/05/13 13:21:38;;;;;;;13.13;9.90;;;;;;;10.51;90.51;98206.53;6197379;28;20231;-44
2023/05/13 13:24:41;;;;;;;11.73;9.87;;;;;;;10.50;90.55;98204.09;6201894;28;20940;-43
2023/05/13 13:27:45;;;;;;;11.30;9.80;;;;;;;10.48;90.49;98206.97;6206517;28;20238;-43
2023/05/13 13:30:49;;;;;;;11.60;9.40;;;;;;;10.52;90.62;98208.13;6210231;28;20446;-47
2023/05/13 13:33:54;;;;;;;12.17;10.67;;;;;;;10.56;90.94;98198.66;6216587;28;20227;-46
2023/05/13 13:36:56;;;;;;;12.20;10.23;;;;;;;10.61;90.93;98199.81;6198278;28;20247;-43
2023/05/13 13:39:59;;;;;;;9.63;8.60;;;;;;;10.64;90.56;98196.69;6205873;28;20231;-43
2023/05/13 13:43:03;;;;;;;10.60;9.50;;;;;;;10.68;90.54;98197.84;6201394;28;20250;-43
2023/05/13 13:46:05;;;;;;;17.40;11.03;;;;;;;10.64;90.76;98189.53;6202294;28;20303;-43
2023/05/13 13:49:07;;;;;;;10.67;9.57;;;;;;;10.72;90.60;98191.03;6197463;28;20637;-47
2023/05/13 13:52:27;;;;;;;9.80;8.80;;;;;;;10.80;90.66;98188.84;6194261;28;20277;-47
2023/05/13 13:55:29;;;;;;;10.23;9.13;;;;;;;10.88;90.69;98193.00;6198222;28;20249;-44
2023/05/13 13:58:32;;;;;;;12.50;11.30;;;;;;;10.96;90.78;98189.19;6198543;28;20359;-43
2023/05/13 14:01:35;;;;;;;11.57;10.03;;;;;;;10.99;91.19;98197.56;6203549;28;20231;-42
2023/05/13 14:04:44;;;;;;;14.43;10.50;;;;;;;10.95;90.79;98196.38;6177592;28;20693;-43
2023/05/13 14:08:01;;;;;;;11.07;9.93;;;;;;;10.94;91.25;98204.63;6198837;28;20724;-43
2023/05/13 14:11:04;;;;;;;11.87;10.40;;;;;;;10.95;91.50;98200.91;6201294;28;20705;-46
2023/05/13 14:14:08;;;;;;;11.27;9.47;;;;;;;10.93;91.12;98193.13;6198040;28;20228;-44
2023/05/13 14:17:11;;;;;;;11.53;9.83;;;;;;;10.92;90.88;98201.38;6195781;28;20764;-46
2023/05/13 14:20:17;;;;;;;9.43;8.47;;;;;;;10.90;91.25;98204.28;6200239;28;20239;-43
2023/05/13 14:23:20;;;;;;;11.60;10.40;;;;;;;10.89;91.70;98196.50;6199733;28;20251;-43
2023/05/13 14:26:23;;;;;;;10.50;9.43;;;;;;;10.87;91.09;98198.56;6210975;28;20326;-49